createdAt,value
2019-01-21T00:02:25.764Z,18.50
2019-01-21T00:05:13.738Z,17.80
2019-01-21T00:10:42.235Z,15.53
2019-01-21T00:13:10.958Z,16.63
2019-01-21T00:15:39.765Z,15.53
2019-01-21T00:18:08.515Z,17.93
2019-01-21T00:20:56.385Z,19.10
2019-01-21T00:23:25.094Z,15.90
2019-01-21T00:26:12.990Z,18.57
2019-01-21T00:29:00.845Z,15.30
2019-01-21T00:31:48.726Z,16.20
2019-01-21T00:34:36.666Z,17.13
2019-01-21T00:37:05.374Z,14.37
2019-01-21T00:39:53.197Z,15.07
2019-01-21T00:42:41.042Z,18.80
2019-01-21T00:51:18.374Z,14.50
2019-01-21T00:54:06.198Z,18.07
2019-01-21T00:56:54.024Z,13.60
2019-01-21T00:59:22.734Z,15.97
2019-01-21T01:01:51.392Z,14.97
2019-01-21T01:04:20.077Z,16.90
2019-01-21T01:07:08.040Z,15.97
2019-01-21T01:09:56.010Z,16.07
2019-01-21T01:15:52.143Z,14.70
2019-01-21T01:18:20.848Z,16.43
2019-01-21T01:20:49.843Z,18.73
2019-01-21T01:23:18.570Z,17.00
2019-01-21T01:26:06.408Z,16.93
2019-01-21T01:28:54.295Z,18.97
2019-01-21T01:31:42.121Z,15.60
2019-01-21T01:34:30.039Z,15.63
2019-01-21T01:36:58.729Z,14.57
2019-01-21T01:39:27.546Z,19.77
2019-01-21T01:42:15.393Z,15.90
2019-01-21T01:45:03.314Z,17.13
2019-01-21T01:47:51.353Z,16.60
2019-01-21T01:50:40.178Z,14.70
2019-01-21T01:53:11.116Z,17.03
2019-01-21T01:55:59.070Z,12.43
2019-01-21T01:58:27.785Z,15.47
2019-01-21T02:01:15.698Z,17.80
2019-01-21T02:03:46.154Z,14.30
2019-01-21T02:06:14.821Z,15.47
2019-01-21T02:09:02.650Z,13.17
2019-01-21T02:14:18.993Z,13.60
2019-01-21T02:16:47.659Z,13.50
2019-01-21T02:19:35.657Z,14.90
2019-01-21T02:25:52.253Z,14.57
2019-01-21T02:29:00.868Z,13.70
2019-01-21T02:32:09.360Z,14.27
2019-01-21T02:35:17.840Z,14.93
2019-01-21T02:38:26.324Z,13.60
2019-01-21T02:41:34.956Z,11.27
2019-01-21T02:44:43.483Z,12.70
2019-01-21T02:47:50.698Z,13.60
2019-01-21T02:50:57.919Z,11.77
2019-01-21T02:54:05.188Z,13.20
2019-01-21T02:57:13.664Z,11.73
2019-01-21T03:00:22.249Z,12.07
2019-01-21T03:03:30.735Z,13.23
2019-01-21T03:06:39.575Z,14.93
2019-01-21T03:09:46.808Z,15.20
2019-01-21T03:12:53.906Z,13.70
2019-01-21T03:16:01.135Z,12.97
2019-01-21T03:19:08.560Z,11.27
2019-01-21T03:22:17.041Z,9.63
2019-01-21T03:25:25.584Z,9.97
2019-01-21T03:28:34.147Z,12.63
2019-01-21T03:34:56.047Z,10.50
2019-01-21T03:38:04.555Z,11.00
2019-01-21T03:41:13.045Z,10.50
2019-01-21T03:44:21.537Z,10.87
2019-01-21T03:47:30.411Z,10.37
2019-01-21T03:50:37.595Z,12.53
2019-01-21T03:53:44.876Z,10.33
2019-01-21T03:56:53.320Z,12.10
2019-01-21T04:00:01.887Z,11.03
2019-01-21T04:03:09.163Z,12.43
2019-01-21T04:06:17.699Z,11.87
2019-01-21T04:09:26.181Z,12.63
2019-01-21T04:12:15.796Z,14.93
2019-01-21T04:15:24.527Z,11.77
2019-01-21T04:18:33.309Z,14.27
2019-01-21T04:21:40.543Z,12.67
2019-01-21T04:25:01.158Z,12.97
2019-01-21T04:27:58.266Z,9.73
2019-01-21T04:31:05.532Z,11.50
2019-01-21T04:34:14.095Z,10.73
2019-01-21T04:37:23.101Z,11.87
2019-01-21T04:40:31.586Z,12.03
2019-01-21T04:43:38.770Z,12.83
2019-01-21T04:46:47.256Z,8.80
2019-01-21T04:49:54.520Z,13.00
2019-01-21T04:53:01.732Z,12.73
2019-01-21T04:56:08.898Z,9.73
2019-01-21T04:59:16.053Z,11.33
2019-01-21T05:02:23.204Z,10.70
2019-01-21T05:05:30.617Z,12.93
2019-01-21T05:08:37.783Z,11.33
2019-01-21T05:11:45.002Z,11.40
2019-01-21T05:14:52.188Z,10.70
2019-01-21T05:17:59.420Z,12.20
2019-01-21T05:21:06.613Z,12.80
2019-01-21T05:24:13.873Z,12.30
2019-01-21T05:27:21.055Z,13.60
2019-01-21T05:30:29.622Z,12.53
2019-01-21T05:33:37.283Z,13.13
2019-01-21T05:36:44.434Z,13.53
2019-01-21T05:39:51.602Z,12.73
2019-01-21T05:42:58.729Z,11.87
2019-01-21T05:46:07.275Z,12.93
2019-01-21T05:49:14.419Z,14.33
2019-01-21T05:52:21.693Z,14.63
2019-01-21T05:55:29.057Z,13.20
2019-01-21T05:58:36.312Z,11.33
2019-01-21T06:01:43.497Z,12.53
2019-01-21T06:04:52.036Z,12.20
2019-01-21T06:08:00.526Z,14.13
2019-01-21T06:11:09.020Z,10.03
2019-01-21T06:14:17.504Z,12.63
2019-01-21T06:17:25.954Z,14.13
2019-01-21T06:20:33.185Z,13.23
2019-01-21T06:23:41.695Z,13.63
2019-01-21T06:26:48.911Z,15.43
2019-01-21T06:29:56.231Z,14.27
2019-01-21T06:33:04.368Z,10.47
2019-01-21T06:36:13.665Z,13.17
2019-01-21T06:39:22.109Z,13.27
2019-01-21T06:42:30.587Z,14.80
2019-01-21T06:45:37.824Z,12.70
2019-01-21T06:48:45.012Z,14.60
2019-01-21T06:51:52.299Z,13.80
2019-01-21T06:54:59.470Z,14.70
2019-01-21T06:58:06.702Z,13.23
2019-01-21T07:01:13.891Z,15.27
2019-01-21T07:04:21.111Z,14.83
2019-01-21T07:07:28.301Z,16.97
2019-01-21T07:10:36.786Z,15.27
2019-01-21T07:13:43.930Z,14.07
2019-01-21T07:16:52.390Z,13.43
2019-01-21T07:19:59.579Z,15.80
2019-01-21T07:23:08.074Z,16.33
2019-01-21T07:26:15.239Z,16.00
2019-01-21T07:29:23.677Z,16.43
2019-01-21T07:32:30.902Z,15.17
2019-01-21T07:35:38.103Z,14.53
2019-01-21T07:38:45.280Z,16.80
2019-01-21T07:41:34.585Z,16.07
2019-01-21T07:44:23.990Z,18.17
2019-01-21T07:47:13.369Z,16.17
2019-01-21T07:50:20.526Z,15.00
2019-01-21T07:53:27.722Z,15.17
2019-01-21T07:56:35.019Z,16.80
2019-01-21T07:59:43.476Z,16.53
2019-01-21T08:02:50.666Z,17.80
2019-01-21T08:05:59.134Z,14.97
2019-01-21T08:09:07.628Z,18.57
2019-01-21T08:12:16.102Z,17.37
2019-01-21T08:15:26.275Z,10.57
2019-01-21T08:18:33.559Z,16.53
2019-01-21T08:21:42.106Z,15.53
2019-01-21T08:24:50.605Z,17.27
2019-01-21T08:27:59.172Z,11.67
2019-01-21T08:31:07.718Z,16.70
2019-01-21T08:34:14.984Z,21.57
2019-01-21T08:37:04.432Z,16.77
2019-01-21T08:40:12.928Z,18.80
2019-01-21T08:43:20.147Z,19.97
2019-01-21T08:46:27.362Z,20.40
2019-01-21T08:49:34.599Z,18.90
2019-01-21T08:52:43.086Z,19.33
2019-01-21T08:55:51.570Z,18.80
2019-01-21T08:58:58.764Z,20.07
2019-01-21T09:02:07.286Z,20.83
2019-01-21T09:05:15.822Z,21.17
2019-01-21T09:08:24.359Z,21.40
2019-01-21T09:11:31.549Z,12.80
2019-01-21T09:14:40.134Z,22.67
2019-01-21T09:17:47.352Z,20.13
2019-01-21T09:20:54.506Z,18.43
2019-01-21T09:24:01.709Z,20.37
2019-01-21T09:27:08.932Z,22.87
2019-01-21T09:30:16.170Z,19.83
2019-01-21T09:33:23.406Z,20.43
2019-01-21T09:36:31.890Z,22.13
2019-01-21T09:39:39.093Z,21.63
2019-01-21T09:42:46.271Z,21.37
2019-01-21T09:45:53.455Z,19.77
2019-01-21T09:48:40.825Z,20.37
2019-01-21T09:51:49.263Z,24.03
2019-01-21T09:54:57.762Z,21.53
2019-01-21T09:58:06.257Z,21.83
2019-01-21T10:04:02.405Z,20.07
2019-01-21T10:07:10.834Z,20.90
2019-01-21T10:10:19.400Z,20.83
2019-01-21T10:13:26.581Z,22.93
2019-01-21T10:16:35.059Z,19.60
2019-01-21T10:19:42.286Z,22.33
2019-01-21T10:22:50.838Z,21.87
2019-01-21T10:25:58.013Z,22.23
2019-01-21T10:29:05.238Z,21.87
2019-01-21T10:32:12.441Z,22.33
2019-01-21T10:35:20.878Z,21.20
2019-01-21T10:38:28.113Z,22.73
2019-01-21T10:41:35.264Z,20.93
2019-01-21T10:44:42.475Z,20.97
2019-01-21T10:47:50.976Z,22.47
2019-01-21T10:50:59.458Z,21.90
2019-01-21T10:54:06.640Z,22.17
2019-01-21T10:57:15.084Z,21.27
2019-01-21T11:00:23.776Z,21.90
2019-01-21T11:03:30.966Z,20.13
2019-01-21T11:06:38.181Z,23.07
2019-01-21T11:09:45.341Z,22.30
2019-01-21T11:12:52.551Z,21.60
2019-01-21T11:16:01.169Z,24.50
2019-01-21T11:19:08.330Z,21.80
2019-01-21T11:22:16.779Z,21.83
2019-01-21T11:25:25.269Z,23.77
2019-01-21T11:28:33.749Z,21.87
2019-01-21T11:31:42.237Z,23.77
2019-01-21T11:34:49.510Z,23.60
2019-01-21T11:37:56.767Z,19.07
2019-01-21T11:41:05.255Z,23.20
2019-01-21T11:44:12.407Z,23.80
2019-01-21T11:47:20.911Z,18.67
2019-01-21T11:50:28.172Z,17.70
2019-01-21T11:53:36.661Z,23.37
2019-01-21T11:56:43.883Z,21.33
2019-01-21T11:59:51.012Z,21.37
2019-01-21T12:02:58.241Z,23.13
2019-01-21T12:06:06.727Z,22.67
2019-01-21T12:09:15.228Z,23.43
2019-01-21T12:12:23.688Z,22.33
2019-01-21T12:15:30.845Z,20.17
2019-01-21T12:18:39.329Z,22.03
2019-01-21T12:21:46.496Z,20.80
2019-01-21T12:24:54.966Z,23.10
2019-01-21T12:28:02.151Z,23.33
2019-01-21T12:31:10.637Z,19.47
2019-01-21T12:34:19.077Z,19.93
2019-01-21T12:37:27.563Z,17.20
2019-01-21T12:40:36.041Z,23.40
2019-01-21T12:43:43.229Z,22.90
2019-01-21T12:46:51.715Z,18.50
2019-01-21T12:50:00.217Z,21.77
2019-01-21T12:53:07.400Z,23.70
2019-01-21T12:56:15.842Z,25.07
2019-01-21T12:59:24.368Z,23.00
2019-01-21T13:02:32.891Z,23.57
2019-01-21T13:05:40.082Z,22.03
2019-01-21T13:08:48.532Z,24.17
2019-01-21T13:11:57.015Z,19.63
2019-01-21T13:15:05.435Z,22.67
2019-01-21T13:18:13.934Z,21.53
2019-01-21T13:21:22.421Z,22.60
2019-01-21T13:24:30.862Z,20.53
2019-01-21T13:27:38.111Z,22.90
2019-01-21T13:33:50.828Z,20.67
2019-01-21T13:39:58.550Z,23.83
2019-01-21T13:43:06.989Z,19.73
2019-01-21T13:46:15.484Z,23.20
2019-01-21T13:49:23.930Z,21.00
2019-01-21T13:52:31.150Z,20.97
2019-01-21T13:55:39.599Z,21.80
2019-01-21T13:58:48.077Z,22.33
2019-01-21T14:01:56.564Z,21.40
2019-01-21T14:05:05.048Z,20.50
2019-01-21T14:08:12.363Z,20.27
2019-01-21T14:11:20.797Z,22.47
2019-01-21T14:14:29.267Z,21.93
2019-01-21T14:17:36.387Z,22.37
2019-01-21T14:20:44.919Z,22.87
2019-01-21T14:23:53.557Z,21.20
2019-01-21T14:27:00.738Z,19.77
2019-01-21T14:30:08.032Z,23.43
2019-01-21T14:33:16.475Z,22.10
2019-01-21T14:36:23.711Z,20.37
2019-01-21T14:39:32.297Z,23.07
2019-01-21T14:42:40.774Z,20.37
2019-01-21T14:45:49.320Z,22.27
2019-01-21T14:49:04.451Z,22.43
2019-01-21T14:52:08.007Z,23.47
2019-01-21T14:55:15.175Z,22.70
2019-01-21T14:58:23.168Z,23.77
2019-01-21T15:01:31.663Z,21.70
2019-01-21T15:04:40.226Z,21.10
2019-01-21T15:07:48.774Z,22.90
2019-01-21T15:10:56.057Z,22.00
2019-01-21T15:14:03.287Z,22.10
2019-01-21T15:17:11.784Z,21.33
2019-01-21T15:20:20.356Z,19.23
2019-01-21T15:23:27.684Z,22.50
2019-01-21T15:26:36.178Z,21.40
2019-01-21T15:29:43.444Z,21.63
2019-01-21T15:32:50.711Z,21.60
2019-01-21T15:35:57.939Z,19.63
2019-01-21T15:39:06.392Z,16.77
2019-01-21T15:42:13.706Z,16.23
2019-01-21T15:45:22.363Z,16.90
2019-01-21T15:48:31.105Z,17.60
2019-01-21T15:51:39.651Z,17.70
2019-01-21T15:54:46.811Z,13.57
2019-01-21T15:57:55.317Z,15.70
2019-01-21T16:01:02.617Z,16.10
2019-01-21T16:03:52.071Z,17.63
2019-01-21T16:06:59.191Z,16.83
2019-01-21T16:10:06.435Z,14.77
2019-01-21T16:13:15.020Z,15.93
2019-01-21T16:16:22.242Z,15.87
2019-01-21T16:19:30.727Z,18.80
2019-01-21T16:22:37.946Z,17.47
2019-01-21T16:25:27.357Z,19.30
2019-01-21T16:28:34.512Z,18.87
2019-01-21T16:31:42.998Z,19.50
2019-01-21T16:34:50.194Z,19.40
2019-01-21T16:37:57.350Z,17.47
2019-01-21T16:41:05.853Z,20.40
2019-01-21T16:43:53.795Z,17.73
2019-01-21T16:46:41.774Z,20.07
2019-01-21T16:49:29.718Z,18.13
2019-01-21T16:52:17.685Z,19.30
2019-01-21T16:55:05.684Z,19.13
2019-01-21T16:57:53.668Z,17.97
2019-01-21T17:00:41.476Z,18.53
2019-01-21T17:03:29.430Z,19.90
2019-01-21T17:06:17.217Z,15.63
2019-01-21T17:11:53.079Z,17.10
2019-01-21T17:14:41.128Z,18.87
2019-01-21T17:17:29.099Z,17.77
2019-01-21T17:20:17.120Z,18.73
2019-01-21T17:23:05.083Z,17.87
2019-01-21T17:25:52.936Z,18.50
2019-01-21T17:28:40.903Z,23.87
2019-01-21T17:36:51.048Z,19.33
2019-01-21T17:39:38.891Z,21.37
2019-01-21T17:45:00.566Z,21.80
2019-01-21T17:47:29.254Z,18.30
2019-01-21T17:49:57.921Z,17.20
2019-01-21T17:52:26.645Z,19.23
2019-01-21T17:55:14.604Z,20.00
2019-01-21T17:58:02.545Z,17.23
2019-01-21T18:00:50.328Z,19.20
2019-01-21T18:03:19.240Z,19.03
2019-01-21T18:08:54.912Z,20.00
2019-01-21T18:11:42.871Z,17.83
2019-01-21T18:14:53.002Z,19.63
2019-01-21T18:23:22.174Z,18.47
2019-01-21T18:26:10.168Z,21.17
2019-01-21T18:28:58.058Z,19.63
2019-01-21T18:31:45.955Z,20.33
2019-01-21T18:34:33.796Z,19.93
2019-01-21T18:37:21.693Z,19.23
2019-01-21T18:40:30.140Z,19.63
2019-01-21T18:43:18.179Z,17.30
2019-01-21T18:46:06.117Z,16.83
2019-01-21T18:48:54.014Z,17.63
2019-01-21T18:51:46.684Z,16.50
2019-01-21T18:54:31.522Z,16.73
2019-01-21T18:57:19.496Z,17.63
2019-01-21T19:00:07.288Z,19.00
2019-01-21T19:05:35.281Z,21.40
2019-01-21T19:11:18.036Z,17.77
2019-01-21T19:14:05.979Z,18.30
2019-01-21T19:16:34.644Z,19.87
2019-01-21T19:19:03.429Z,18.50
2019-01-21T19:21:32.112Z,17.80
2019-01-21T19:24:19.961Z,18.23
2019-01-21T19:27:07.883Z,17.10
2019-01-21T19:29:55.783Z,16.43
2019-01-21T19:32:43.699Z,15.97
2019-01-21T19:35:52.181Z,17.70
2019-01-21T19:38:40.031Z,21.60
2019-01-21T19:41:27.854Z,19.30
2019-01-21T19:46:30.877Z,16.80
2019-01-21T19:51:47.370Z,25.40
2019-01-21T19:54:35.150Z,19.60
2019-01-21T19:57:03.867Z,17.33
2019-01-21T20:02:40.709Z,15.03
2019-01-21T20:08:10.103Z,16.03
2019-01-21T20:10:38.825Z,17.50
2019-01-21T20:13:26.811Z,17.43
2019-01-21T20:16:14.765Z,16.20
2019-01-21T20:19:02.590Z,15.03
2019-01-21T20:21:31.290Z,16.83
2019-01-21T20:24:19.262Z,16.43
2019-01-21T20:29:41.861Z,16.40
2019-01-21T20:32:29.713Z,17.20
2019-01-21T20:35:17.663Z,16.37
2019-01-21T20:38:05.627Z,19.27
2019-01-21T20:40:53.462Z,15.80
2019-01-21T20:43:41.432Z,15.90
2019-01-21T20:49:16.909Z,18.50
2019-01-21T20:52:04.845Z,20.10
2019-01-21T20:54:52.707Z,18.50
2019-01-21T20:57:21.342Z,19.10
2019-01-21T20:59:50.118Z,20.40
2019-01-21T21:02:18.834Z,19.43
2019-01-21T21:05:06.674Z,20.03
2019-01-21T21:07:54.472Z,16.27
2019-01-21T21:13:37.097Z,17.87
2019-01-21T21:16:05.783Z,20.13
2019-01-21T21:18:53.761Z,18.43
2019-01-21T21:21:22.413Z,18.83
2019-01-21T21:24:10.393Z,36.73
2019-01-21T21:26:58.318Z,19.53
2019-01-21T21:29:46.287Z,19.00
2019-01-21T21:32:34.211Z,54.80
2019-01-21T21:35:02.908Z,22.87
2019-01-21T21:37:50.827Z,18.60
2019-01-21T21:40:38.985Z,18.03
2019-01-21T21:43:26.982Z,17.50
2019-01-21T21:46:14.890Z,18.57
2019-01-21T21:49:24.684Z,18.83
2019-01-21T21:51:53.776Z,17.43
2019-01-21T21:57:29.614Z,22.00
2019-01-21T22:00:17.446Z,20.20
2019-01-21T22:03:05.273Z,18.90
2019-01-21T22:05:53.216Z,21.50
2019-01-21T22:08:41.258Z,22.73
2019-01-21T22:11:29.201Z,17.83
2019-01-21T22:13:59.634Z,20.37
2019-01-21T22:16:28.300Z,22.40
2019-01-21T22:19:16.185Z,25.73
2019-01-21T22:22:04.030Z,21.10
2019-01-21T22:24:52.121Z,19.67
2019-01-21T22:27:40.071Z,19.30
2019-01-21T22:30:48.517Z,18.97
2019-01-21T22:33:38.210Z,17.70
2019-01-21T22:36:26.163Z,19.47
2019-01-21T22:39:14.066Z,18.87
2019-01-21T22:44:49.824Z,20.77
2019-01-21T22:47:37.724Z,21.00
2019-01-21T22:50:46.212Z,22.40
2019-01-21T22:53:34.188Z,18.43
2019-01-21T22:56:22.062Z,18.53
2019-01-21T23:04:39.138Z,18.50
2019-01-21T23:07:27.103Z,20.13
2019-01-21T23:10:15.074Z,19.90
2019-01-21T23:12:43.807Z,18.17
2019-01-21T23:15:12.726Z,16.63
2019-01-21T23:18:04.294Z,20.07
2019-01-21T23:20:50.250Z,17.43
2019-01-21T23:23:38.076Z,21.20
2019-01-21T23:26:25.874Z,17.70
2019-01-21T23:29:13.914Z,17.57
2019-01-21T23:32:01.758Z,18.37
2019-01-21T23:34:51.314Z,20.60
2019-01-21T23:37:39.184Z,18.40
2019-01-21T23:40:49.390Z,20.93
2019-01-21T23:43:18.096Z,20.00
2019-01-21T23:46:05.957Z,16.67
2019-01-21T23:48:53.854Z,18.67
2019-01-21T23:51:41.758Z,18.33
2019-01-21T23:54:29.538Z,18.57
2019-01-21T23:57:17.510Z,19.07
